sensor_id;sensor_type;location;lat;lon;timestamp;P1;durP1;ratioP1;P2;durP2;ratioP2
56333;SDS011;42240;53.626;55.886;2022-12-10T00:01:29;0.70;;;0.70;;
56333;SDS011;42240;53.626;55.886;2022-12-10T00:03:04;0.80;;;0.80;;
56333;SDS011;42240;53.626;55.886;2022-12-10T00:04:38;0.70;;;0.70;;
56333;SDS011;42240;53.626;55.886;2022-12-10T00:06:18;0.70;;;0.70;;
56333;SDS011;42240;53.626;55.886;2022-12-10T00:07:53;0.70;;;0.70;;
56333;SDS011;42240;53.626;55.886;2022-12-10T00:09:28;0.70;;;0.70;;
56333;SDS011;42240;53.626;55.886;2022-12-10T00:11:05;0.70;;;0.70;;
56333;SDS011;42240;53.626;55.886;2022-12-10T00:12:41;0.70;;;0.70;;
56333;SDS011;42240;53.626;55.886;2022-12-10T00:14:14;0.70;;;0.70;;
56333;SDS011;42240;53.626;55.886;2022-12-10T00:15:49;0.70;;;0.70;;
56333;SDS011;42240;53.626;55.886;2022-12-10T00:17:23;0.70;;;0.70;;
56333;SDS011;42240;53.626;55.886;2022-12-10T00:18:56;0.70;;;0.70;;
56333;SDS011;42240;53.626;55.886;2022-12-10T00:20:30;0.70;;;0.70;;
56333;SDS011;42240;53.626;55.886;2022-12-10T00:22:04;0.70;;;0.70;;
56333;SDS011;42240;53.626;55.886;2022-12-10T00:23:37;0.70;;;0.70;;
56333;SDS011;42240;53.626;55.886;2022-12-10T00:25:12;0.70;;;0.70;;
56333;SDS011;42240;53.626;55.886;2022-12-10T00:26:46;0.70;;;0.70;;
56333;SDS011;42240;53.626;55.886;2022-12-10T00:28:22;0.70;;;0.70;;
56333;SDS011;42240;53.626;55.886;2022-12-10T00:29:58;0.70;;;0.70;;
56333;SDS011;42240;53.626;55.886;2022-12-10T00:31:34;0.70;;;0.70;;
56333;SDS011;42240;53.626;55.886;2022-12-10T00:33:12;0.70;;;0.70;;
56333;SDS011;42240;53.626;55.886;2022-12-10T00:34:45;0.70;;;0.70;;
56333;SDS011;42240;53.626;55.886;2022-12-10T00:36:23;0.70;;;0.70;;
56333;SDS011;42240;53.626;55.886;2022-12-10T00:37:59;0.70;;;0.70;;
56333;SDS011;42240;53.626;55.886;2022-12-10T00:39:32;0.70;;;0.70;;
56333;SDS011;42240;53.626;55.886;2022-12-10T00:41:06;0.70;;;0.70;;
56333;SDS011;42240;53.626;55.886;2022-12-10T00:42:39;0.70;;;0.70;;
56333;SDS011;42240;53.626;55.886;2022-12-10T00:44:14;0.70;;;0.70;;
56333;SDS011;42240;53.626;55.886;2022-12-10T00:45:48;0.70;;;0.70;;
56333;SDS011;42240;53.626;55.886;2022-12-10T00:47:25;0.70;;;0.70;;
56333;SDS011;42240;53.626;55.886;2022-12-10T00:49:16;0.70;;;0.70;;
56333;SDS011;42240;53.626;55.886;2022-12-10T00:50:57;0.70;;;0.70;;
56333;SDS011;42240;53.626;55.886;2022-12-10T00:52:32;0.70;;;0.70;;
56333;SDS011;42240;53.626;55.886;2022-12-10T00:54:06;0.70;;;0.70;;
56333;SDS011;42240;53.626;55.886;2022-12-10T00:55:40;0.60;;;0.60;;
56333;SDS011;42240;53.626;55.886;2022-12-10T00:57:14;0.70;;;0.70;;
56333;SDS011;42240;53.626;55.886;2022-12-10T00:58:48;0.70;;;0.70;;
56333;SDS011;42240;53.626;55.886;2022-12-10T01:00:22;0.70;;;0.70;;
56333;SDS011;42240;53.626;55.886;2022-12-10T01:01:57;0.70;;;0.70;;
56333;SDS011;42240;53.626;55.886;2022-12-10T01:03:32;0.70;;;0.70;;
56333;SDS011;42240;53.626;55.886;2022-12-10T01:05:06;0.70;;;0.70;;
56333;SDS011;42240;53.626;55.886;2022-12-10T01:06:42;0.63;;;0.63;;
56333;SDS011;42240;53.626;55.886;2022-12-10T01:08:17;0.70;;;0.70;;
56333;SDS011;42240;53.626;55.886;2022-12-10T01:09:51;0.70;;;0.70;;
56333;SDS011;42240;53.626;55.886;2022-12-10T01:11:28;0.70;;;0.70;;
56333;SDS011;42240;53.626;55.886;2022-12-10T01:13:03;0.70;;;0.70;;
56333;SDS011;42240;53.626;55.886;2022-12-10T01:14:37;0.60;;;0.60;;
56333;SDS011;42240;53.626;55.886;2022-12-10T01:16:12;0.70;;;0.70;;
56333;SDS011;42240;53.626;55.886;2022-12-10T01:17:47;0.60;;;0.60;;
56333;SDS011;42240;53.626;55.886;2022-12-10T01:19:21;0.70;;;0.70;;
56333;SDS011;42240;53.626;55.886;2022-12-10T01:21:05;0.70;;;0.70;;
56333;SDS011;42240;53.626;55.886;2022-12-10T01:22:41;0.60;;;0.60;;
56333;SDS011;42240;53.626;55.886;2022-12-10T01:24:14;0.60;;;0.60;;
56333;SDS011;42240;53.626;55.886;2022-12-10T01:25:48;0.70;;;0.70;;
56333;SDS011;42240;53.626;55.886;2022-12-10T01:27:22;0.70;;;0.70;;
56333;SDS011;42240;53.626;55.886;2022-12-10T01:28:56;0.70;;;0.70;;
56333;SDS011;42240;53.626;55.886;2022-12-10T01:30:31;0.70;;;0.70;;
56333;SDS011;42240;53.626;55.886;2022-12-10T01:32:06;0.70;;;0.70;;
56333;SDS011;42240;53.626;55.886;2022-12-10T01:33:43;0.70;;;0.70;;
56333;SDS011;42240;53.626;55.886;2022-12-10T01:35:17;0.63;;;0.63;;
56333;SDS011;42240;53.626;55.886;2022-12-10T01:36:53;0.70;;;0.70;;
56333;SDS011;42240;53.626;55.886;2022-12-10T01:38:27;0.70;;;0.70;;
56333;SDS011;42240;53.626;55.886;2022-12-10T01:40:03;0.60;;;0.60;;
56333;SDS011;42240;53.626;55.886;2022-12-10T01:41:40;0.70;;;0.70;;
56333;SDS011;42240;53.626;55.886;2022-12-10T01:43:15;0.70;;;0.70;;
56333;SDS011;42240;53.626;55.886;2022-12-10T01:46:24;0.70;;;0.70;;
56333;SDS011;42240;53.626;55.886;2022-12-10T01:48:01;0.70;;;0.70;;
56333;SDS011;42240;53.626;55.886;2022-12-10T01:49:42;0.70;;;0.70;;
56333;SDS011;42240;53.626;55.886;2022-12-10T01:51:17;0.70;;;0.70;;
56333;SDS011;42240;53.626;55.886;2022-12-10T01:52:52;0.70;;;0.70;;
56333;SDS011;42240;53.626;55.886;2022-12-10T01:54:35;0.70;;;0.70;;
56333;SDS011;42240;53.626;55.886;2022-12-10T01:56:13;0.70;;;0.70;;
56333;SDS011;42240;53.626;55.886;2022-12-10T01:57:49;0.60;;;0.60;;
56333;SDS011;42240;53.626;55.886;2022-12-10T01:59:26;0.67;;;0.67;;
56333;SDS011;42240;53.626;55.886;2022-12-10T02:02:43;0.70;;;0.70;;
56333;SDS011;42240;53.626;55.886;2022-12-10T02:09:16;0.70;;;0.70;;
56333;SDS011;42240;53.626;55.886;2022-12-10T02:12:37;0.70;;;0.70;;
56333;SDS011;42240;53.626;55.886;2022-12-10T02:16:19;0.70;;;0.70;;
56333;SDS011;42240;53.626;55.886;2022-12-10T02:18:16;0.70;;;0.70;;
56333;SDS011;42240;53.626;55.886;2022-12-10T02:20:01;0.70;;;0.70;;
56333;SDS011;42240;53.626;55.886;2022-12-10T02:21:38;0.60;;;0.60;;
56333;SDS011;42240;53.626;55.886;2022-12-10T02:23:19;0.60;;;0.60;;
56333;SDS011;42240;53.626;55.886;2022-12-10T02:24:57;0.70;;;0.70;;
56333;SDS011;42240;53.626;55.886;2022-12-10T02:26:49;0.60;;;0.60;;
56333;SDS011;42240;53.626;55.886;2022-12-10T02:30:25;0.60;;;0.60;;
56333;SDS011;42240;53.626;55.886;2022-12-10T02:32:00;0.70;;;0.70;;
56333;SDS011;42240;53.626;55.886;2022-12-10T02:33:43;0.68;;;0.68;;
56333;SDS011;42240;53.626;55.886;2022-12-10T02:35:26;0.70;;;0.70;;
56333;SDS011;42240;53.626;55.886;2022-12-10T02:37:05;0.70;;;0.70;;
56333;SDS011;42240;53.626;55.886;2022-12-10T02:38:45;0.70;;;0.70;;
56333;SDS011;42240;53.626;55.886;2022-12-10T02:40:26;0.70;;;0.70;;
56333;SDS011;42240;53.626;55.886;2022-12-10T02:42:06;0.80;;;0.80;;
56333;SDS011;42240;53.626;55.886;2022-12-10T02:43:43;0.60;;;0.60;;
56333;SDS011;42240;53.626;55.886;2022-12-10T02:45:21;0.70;;;0.70;;
56333;SDS011;42240;53.626;55.886;2022-12-10T02:46:58;0.70;;;0.70;;
56333;SDS011;42240;53.626;55.886;2022-12-10T02:48:38;0.70;;;0.70;;
56333;SDS011;42240;53.626;55.886;2022-12-10T02:50:13;0.70;;;0.70;;
56333;SDS011;42240;53.626;55.886;2022-12-10T02:51:48;0.70;;;0.70;;
56333;SDS011;42240;53.626;55.886;2022-12-10T02:53:22;0.70;;;0.70;;
56333;SDS011;42240;53.626;55.886;2022-12-10T02:54:58;0.70;;;0.70;;
56333;SDS011;42240;53.626;55.886;2022-12-10T02:56:36;0.60;;;0.60;;
56333;SDS011;42240;53.626;55.886;2022-12-10T03:02:12;0.70;;;0.70;;
56333;SDS011;42240;53.626;55.886;2022-12-10T03:03:58;0.70;;;0.70;;
56333;SDS011;42240;53.626;55.886;2022-12-10T03:07:29;0.70;;;0.70;;
56333;SDS011;42240;53.626;55.886;2022-12-10T03:11:18;0.70;;;0.70;;
56333;SDS011;42240;53.626;55.886;2022-12-10T03:12:59;0.70;;;0.70;;
56333;SDS011;42240;53.626;55.886;2022-12-10T03:14:35;0.70;;;0.70;;
56333;SDS011;42240;53.626;55.886;2022-12-10T03:16:09;0.70;;;0.70;;
56333;SDS011;42240;53.626;55.886;2022-12-10T03:17:45;0.60;;;0.60;;
56333;SDS011;42240;53.626;55.886;2022-12-10T03:19:21;0.70;;;0.70;;
56333;SDS011;42240;53.626;55.886;2022-12-10T03:21:04;0.70;;;0.70;;
56333;SDS011;42240;53.626;55.886;2022-12-10T03:22:40;0.70;;;0.70;;
56333;SDS011;42240;53.626;55.886;2022-12-10T03:24:17;0.70;;;0.70;;
56333;SDS011;42240;53.626;55.886;2022-12-10T03:25:51;0.70;;;0.70;;
56333;SDS011;42240;53.626;55.886;2022-12-10T03:27:25;0.67;;;0.67;;
56333;SDS011;42240;53.626;55.886;2022-12-10T03:29:06;0.60;;;0.60;;
56333;SDS011;42240;53.626;55.886;2022-12-10T03:31:00;0.70;;;0.70;;
56333;SDS011;42240;53.626;55.886;2022-12-10T03:32:35;0.70;;;0.70;;
56333;SDS011;42240;53.626;55.886;2022-12-10T03:34:10;0.70;;;0.70;;
56333;SDS011;42240;53.626;55.886;2022-12-10T03:35:44;0.70;;;0.70;;
56333;SDS011;42240;53.626;55.886;2022-12-10T03:37:19;0.63;;;0.63;;
56333;SDS011;42240;53.626;55.886;2022-12-10T03:38:54;0.70;;;0.70;;
56333;SDS011;42240;53.626;55.886;2022-12-10T03:40:28;0.70;;;0.70;;
56333;SDS011;42240;53.626;55.886;2022-12-10T03:42:03;0.70;;;0.70;;
56333;SDS011;42240;53.626;55.886;2022-12-10T03:43:54;0.70;;;0.70;;
56333;SDS011;42240;53.626;55.886;2022-12-10T03:45:30;0.70;;;0.70;;
56333;SDS011;42240;53.626;55.886;2022-12-10T03:47:05;0.70;;;0.70;;
56333;SDS011;42240;53.626;55.886;2022-12-10T03:48:41;0.67;;;0.67;;
56333;SDS011;42240;53.626;55.886;2022-12-10T03:50:17;0.70;;;0.70;;
56333;SDS011;42240;53.626;55.886;2022-12-10T03:51:51;0.70;;;0.70;;
56333;SDS011;42240;53.626;55.886;2022-12-10T03:53:25;0.70;;;0.70;;
56333;SDS011;42240;53.626;55.886;2022-12-10T03:54:59;0.70;;;0.70;;
56333;SDS011;42240;53.626;55.886;2022-12-10T03:56:38;0.70;;;0.70;;
56333;SDS011;42240;53.626;55.886;2022-12-10T03:58:12;0.70;;;0.70;;
56333;SDS011;42240;53.626;55.886;2022-12-10T03:59:51;0.70;;;0.70;;
56333;SDS011;42240;53.626;55.886;2022-12-10T04:01:25;0.70;;;0.70;;
56333;SDS011;42240;53.626;55.886;2022-12-10T04:02:58;0.70;;;0.70;;
56333;SDS011;42240;53.626;55.886;2022-12-10T04:04:32;0.60;;;0.60;;
56333;SDS011;42240;53.626;55.886;2022-12-10T04:06:08;0.70;;;0.70;;
56333;SDS011;42240;53.626;55.886;2022-12-10T04:07:46;0.70;;;0.70;;
56333;SDS011;42240;53.626;55.886;2022-12-10T04:09:19;0.70;;;0.70;;
56333;SDS011;42240;53.626;55.886;2022-12-10T04:10:53;0.70;;;0.70;;
56333;SDS011;42240;53.626;55.886;2022-12-10T04:12:27;0.70;;;0.70;;
56333;SDS011;42240;53.626;55.886;2022-12-10T04:14:07;0.70;;;0.70;;
56333;SDS011;42240;53.626;55.886;2022-12-10T04:16:03;0.60;;;0.60;;
56333;SDS011;42240;53.626;55.886;2022-12-10T04:17:55;0.70;;;0.70;;
56333;SDS011;42240;53.626;55.886;2022-12-10T04:19:29;0.70;;;0.70;;
56333;SDS011;42240;53.626;55.886;2022-12-10T04:21:03;0.70;;;0.70;;
56333;SDS011;42240;53.626;55.886;2022-12-10T04:22:55;0.70;;;0.70;;
56333;SDS011;42240;53.626;55.886;2022-12-10T04:24:47;0.70;;;0.70;;
56333;SDS011;42240;53.626;55.886;2022-12-10T04:26:40;0.60;;;0.60;;
56333;SDS011;42240;53.626;55.886;2022-12-10T04:28:26;0.63;;;0.63;;
56333;SDS011;42240;53.626;55.886;2022-12-10T04:29:59;0.70;;;0.70;;
56333;SDS011;42240;53.626;55.886;2022-12-10T04:31:35;0.70;;;0.70;;
56333;SDS011;42240;53.626;55.886;2022-12-10T04:33:08;0.70;;;0.70;;
56333;SDS011;42240;53.626;55.886;2022-12-10T04:34:42;0.70;;;0.70;;
56333;SDS011;42240;53.626;55.886;2022-12-10T04:36:16;0.70;;;0.70;;
56333;SDS011;42240;53.626;55.886;2022-12-10T04:37:49;0.70;;;0.70;;
56333;SDS011;42240;53.626;55.886;2022-12-10T04:39:23;0.70;;;0.70;;
56333;SDS011;42240;53.626;55.886;2022-12-10T04:40:57;0.80;;;0.80;;
56333;SDS011;42240;53.626;55.886;2022-12-10T04:42:31;0.70;;;0.70;;
56333;SDS011;42240;53.626;55.886;2022-12-10T04:44:08;0.70;;;0.70;;
56333;SDS011;42240;53.626;55.886;2022-12-10T04:45:42;0.70;;;0.70;;
56333;SDS011;42240;53.626;55.886;2022-12-10T04:47:16;0.60;;;0.60;;
56333;SDS011;42240;53.626;55.886;2022-12-10T04:48:52;0.70;;;0.70;;
56333;SDS011;42240;53.626;55.886;2022-12-10T04:50:26;0.70;;;0.70;;
56333;SDS011;42240;53.626;55.886;2022-12-10T04:51:59;0.70;;;0.70;;
56333;SDS011;42240;53.626;55.886;2022-12-10T04:53:33;0.70;;;0.70;;
56333;SDS011;42240;53.626;55.886;2022-12-10T04:55:07;0.70;;;0.70;;
56333;SDS011;42240;53.626;55.886;2022-12-10T04:56:41;0.70;;;0.70;;
56333;SDS011;42240;53.626;55.886;2022-12-10T04:58:20;0.60;;;0.60;;
56333;SDS011;42240;53.626;55.886;2022-12-10T04:59:54;0.60;;;0.60;;
56333;SDS011;42240;53.626;55.886;2022-12-10T05:01:28;0.67;;;0.67;;
56333;SDS011;42240;53.626;55.886;2022-12-10T05:03:02;0.60;;;0.60;;
56333;SDS011;42240;53.626;55.886;2022-12-10T05:04:36;0.60;;;0.60;;
56333;SDS011;42240;53.626;55.886;2022-12-10T05:06:11;0.70;;;0.70;;
56333;SDS011;42240;53.626;55.886;2022-12-10T05:07:46;0.60;;;0.60;;
56333;SDS011;42240;53.626;55.886;2022-12-10T05:09:20;0.60;;;0.60;;
56333;SDS011;42240;53.626;55.886;2022-12-10T05:10:54;0.60;;;0.60;;
56333;SDS011;42240;53.626;55.886;2022-12-10T05:12:28;0.60;;;0.60;;
56333;SDS011;42240;53.626;55.886;2022-12-10T05:14:01;0.60;;;0.60;;
56333;SDS011;42240;53.626;55.886;2022-12-10T05:15:38;0.60;;;0.60;;
56333;SDS011;42240;53.626;55.886;2022-12-10T05:17:12;0.60;;;0.60;;
56333;SDS011;42240;53.626;55.886;2022-12-10T05:18:46;0.60;;;0.60;;
56333;SDS011;42240;53.626;55.886;2022-12-10T05:20:20;0.60;;;0.60;;
56333;SDS011;42240;53.626;55.886;2022-12-10T05:21:54;0.60;;;0.60;;
56333;SDS011;42240;53.626;55.886;2022-12-10T05:23:50;0.60;;;0.60;;
56333;SDS011;42240;53.626;55.886;2022-12-10T05:25:26;0.60;;;0.60;;
56333;SDS011;42240;53.626;55.886;2022-12-10T05:26:59;0.60;;;0.60;;
56333;SDS011;42240;53.626;55.886;2022-12-10T05:28:34;0.60;;;0.60;;
56333;SDS011;42240;53.626;55.886;2022-12-10T05:30:12;0.50;;;0.50;;
56333;SDS011;42240;53.626;55.886;2022-12-10T05:31:48;0.60;;;0.60;;
56333;SDS011;42240;53.626;55.886;2022-12-10T05:33:21;0.60;;;0.60;;
56333;SDS011;42240;53.626;55.886;2022-12-10T05:34:56;0.60;;;0.60;;
56333;SDS011;42240;53.626;55.886;2022-12-10T05:36:30;0.50;;;0.50;;
56333;SDS011;42240;53.626;55.886;2022-12-10T05:38:04;0.50;;;0.50;;
56333;SDS011;42240;53.626;55.886;2022-12-10T05:39:38;0.50;;;0.50;;
56333;SDS011;42240;53.626;55.886;2022-12-10T05:41:13;0.50;;;0.50;;
56333;SDS011;42240;53.626;55.886;2022-12-10T05:42:52;0.50;;;0.50;;
56333;SDS011;42240;53.626;55.886;2022-12-10T05:44:26;0.60;;;0.60;;
56333;SDS011;42240;53.626;55.886;2022-12-10T05:46:03;0.50;;;0.50;;
56333;SDS011;42240;53.626;55.886;2022-12-10T05:47:39;0.50;;;0.50;;
56333;SDS011;42240;53.626;55.886;2022-12-10T05:49:16;0.50;;;0.50;;
56333;SDS011;42240;53.626;55.886;2022-12-10T05:50:49;0.50;;;0.50;;
56333;SDS011;42240;53.626;55.886;2022-12-10T05:52:23;0.60;;;0.60;;
56333;SDS011;42240;53.626;55.886;2022-12-10T05:53:57;0.60;;;0.60;;
56333;SDS011;42240;53.626;55.886;2022-12-10T05:55:32;0.50;;;0.50;;
56333;SDS011;42240;53.626;55.886;2022-12-10T05:57:06;0.60;;;0.60;;
56333;SDS011;42240;53.626;55.886;2022-12-10T05:58:40;0.60;;;0.60;;
56333;SDS011;42240;53.626;55.886;2022-12-10T06:00:17;0.60;;;0.60;;
56333;SDS011;42240;53.626;55.886;2022-12-10T06:01:51;0.60;;;0.60;;
56333;SDS011;42240;53.626;55.886;2022-12-10T06:03:26;0.50;;;0.50;;
56333;SDS011;42240;53.626;55.886;2022-12-10T06:05:00;0.50;;;0.50;;
56333;SDS011;42240;53.626;55.886;2022-12-10T06:06:35;0.50;;;0.50;;
56333;SDS011;42240;53.626;55.886;2022-12-10T06:08:10;0.60;;;0.60;;
56333;SDS011;42240;53.626;55.886;2022-12-10T06:09:44;0.50;;;0.50;;
56333;SDS011;42240;53.626;55.886;2022-12-10T06:11:18;0.50;;;0.50;;
56333;SDS011;42240;53.626;55.886;2022-12-10T06:12:57;0.50;;;0.50;;
56333;SDS011;42240;53.626;55.886;2022-12-10T06:14:31;0.50;;;0.50;;
56333;SDS011;42240;53.626;55.886;2022-12-10T06:16:05;0.50;;;0.50;;
56333;SDS011;42240;53.626;55.886;2022-12-10T06:17:41;0.50;;;0.50;;
56333;SDS011;42240;53.626;55.886;2022-12-10T06:19:17;0.50;;;0.50;;
56333;SDS011;42240;53.626;55.886;2022-12-10T06:20:51;0.50;;;0.50;;
56333;SDS011;42240;53.626;55.886;2022-12-10T06:22:25;0.50;;;0.50;;
56333;SDS011;42240;53.626;55.886;2022-12-10T06:23:59;0.50;;;0.50;;
56333;SDS011;42240;53.626;55.886;2022-12-10T06:25:33;0.50;;;0.50;;
56333;SDS011;42240;53.626;55.886;2022-12-10T06:27:13;0.50;;;0.50;;
56333;SDS011;42240;53.626;55.886;2022-12-10T06:28:47;0.50;;;0.50;;
56333;SDS011;42240;53.626;55.886;2022-12-10T06:30:23;0.50;;;0.50;;
56333;SDS011;42240;53.626;55.886;2022-12-10T06:31:57;0.50;;;0.50;;
56333;SDS011;42240;53.626;55.886;2022-12-10T06:33:31;0.50;;;0.50;;
56333;SDS011;42240;53.626;55.886;2022-12-10T06:35:05;0.50;;;0.50;;
56333;SDS011;42240;53.626;55.886;2022-12-10T06:36:39;0.50;;;0.50;;
56333;SDS011;42240;53.626;55.886;2022-12-10T06:38:13;0.50;;;0.50;;
56333;SDS011;42240;53.626;55.886;2022-12-10T06:39:47;0.50;;;0.50;;
56333;SDS011;42240;53.626;55.886;2022-12-10T06:41:23;0.50;;;0.50;;
56333;SDS011;42240;53.626;55.886;2022-12-10T06:42:56;0.50;;;0.50;;
56333;SDS011;42240;53.626;55.886;2022-12-10T06:44:31;0.50;;;0.50;;
56333;SDS011;42240;53.626;55.886;2022-12-10T06:46:09;0.50;;;0.50;;
56333;SDS011;42240;53.626;55.886;2022-12-10T06:47:45;0.50;;;0.50;;
56333;SDS011;42240;53.626;55.886;2022-12-10T06:49:18;0.50;;;0.50;;
56333;SDS011;42240;53.626;55.886;2022-12-10T06:50:52;0.50;;;0.50;;
56333;SDS011;42240;53.626;55.886;2022-12-10T06:52:28;0.50;;;0.50;;
56333;SDS011;42240;53.626;55.886;2022-12-10T06:54:01;0.50;;;0.50;;
56333;SDS011;42240;53.626;55.886;2022-12-10T06:55:36;0.50;;;0.50;;
56333;SDS011;42240;53.626;55.886;2022-12-10T06:57:11;0.50;;;0.50;;
56333;SDS011;42240;53.626;55.886;2022-12-10T06:58:45;0.50;;;0.50;;
56333;SDS011;42240;53.626;55.886;2022-12-10T07:00:19;0.50;;;0.50;;
56333;SDS011;42240;53.626;55.886;2022-12-10T07:01:53;0.50;;;0.50;;
56333;SDS011;42240;53.626;55.886;2022-12-10T07:03:28;0.50;;;0.50;;
56333;SDS011;42240;53.626;55.886;2022-12-10T07:05:01;0.50;;;0.50;;
56333;SDS011;42240;53.626;55.886;2022-12-10T07:06:35;0.50;;;0.50;;
56333;SDS011;42240;53.626;55.886;2022-12-10T07:08:09;0.50;;;0.50;;
56333;SDS011;42240;53.626;55.886;2022-12-10T07:09:42;0.50;;;0.50;;
56333;SDS011;42240;53.626;55.886;2022-12-10T07:11:18;0.50;;;0.50;;
56333;SDS011;42240;53.626;55.886;2022-12-10T07:12:53;0.57;;;0.57;;
56333;SDS011;42240;53.626;55.886;2022-12-10T07:14:27;0.50;;;0.50;;
56333;SDS011;42240;53.626;55.886;2022-12-10T07:16:01;0.50;;;0.50;;
56333;SDS011;42240;53.626;55.886;2022-12-10T07:17:35;0.50;;;0.50;;
56333;SDS011;42240;53.626;55.886;2022-12-10T07:19:09;0.50;;;0.50;;
56333;SDS011;42240;53.626;55.886;2022-12-10T07:20:45;0.50;;;0.50;;
56333;SDS011;42240;53.626;55.886;2022-12-10T07:22:19;0.53;;;0.53;;
56333;SDS011;42240;53.626;55.886;2022-12-10T07:23:56;0.60;;;0.60;;
56333;SDS011;42240;53.626;55.886;2022-12-10T07:25:32;0.50;;;0.50;;
56333;SDS011;42240;53.626;55.886;2022-12-10T07:27:06;0.50;;;0.50;;
56333;SDS011;42240;53.626;55.886;2022-12-10T07:28:41;0.50;;;0.50;;
56333;SDS011;42240;53.626;55.886;2022-12-10T07:30:24;0.50;;;0.50;;
56333;SDS011;42240;53.626;55.886;2022-12-10T07:31:58;0.50;;;0.50;;
56333;SDS011;42240;53.626;55.886;2022-12-10T07:33:32;0.50;;;0.50;;
56333;SDS011;42240;53.626;55.886;2022-12-10T07:35:05;0.50;;;0.50;;
56333;SDS011;42240;53.626;55.886;2022-12-10T07:36:39;0.50;;;0.50;;
56333;SDS011;42240;53.626;55.886;2022-12-10T07:38:13;0.50;;;0.50;;
56333;SDS011;42240;53.626;55.886;2022-12-10T07:39:46;0.50;;;0.50;;
56333;SDS011;42240;53.626;55.886;2022-12-10T07:41:20;0.50;;;0.50;;
56333;SDS011;42240;53.626;55.886;2022-12-10T07:42:55;0.60;;;0.60;;
56333;SDS011;42240;53.626;55.886;2022-12-10T07:44:30;0.50;;;0.50;;
56333;SDS011;42240;53.626;55.886;2022-12-10T07:46:07;0.60;;;0.60;;
56333;SDS011;42240;53.626;55.886;2022-12-10T07:47:45;0.50;;;0.50;;
56333;SDS011;42240;53.626;55.886;2022-12-10T07:49:18;0.50;;;0.50;;
56333;SDS011;42240;53.626;55.886;2022-12-10T07:50:55;0.50;;;0.50;;
56333;SDS011;42240;53.626;55.886;2022-12-10T07:52:30;0.50;;;0.50;;
56333;SDS011;42240;53.626;55.886;2022-12-10T07:54:04;0.50;;;0.50;;
56333;SDS011;42240;53.626;55.886;2022-12-10T07:55:39;0.50;;;0.50;;
56333;SDS011;42240;53.626;55.886;2022-12-10T07:57:13;0.50;;;0.50;;
56333;SDS011;42240;53.626;55.886;2022-12-10T07:58:48;0.50;;;0.50;;
56333;SDS011;42240;53.626;55.886;2022-12-10T08:00:22;0.50;;;0.50;;
56333;SDS011;42240;53.626;55.886;2022-12-10T08:01:55;0.50;;;0.50;;
56333;SDS011;42240;53.626;55.886;2022-12-10T08:03:33;0.50;;;0.50;;
56333;SDS011;42240;53.626;55.886;2022-12-10T08:05:06;0.50;;;0.50;;
56333;SDS011;42240;53.626;55.886;2022-12-10T08:06:40;0.50;;;0.50;;
56333;SDS011;42240;53.626;55.886;2022-12-10T08:08:14;0.50;;;0.50;;
56333;SDS011;42240;53.626;55.886;2022-12-10T08:09:48;0.57;;;0.57;;
56333;SDS011;42240;53.626;55.886;2022-12-10T08:11:22;0.50;;;0.50;;
56333;SDS011;42240;53.626;55.886;2022-12-10T08:12:56;0.50;;;0.50;;
56333;SDS011;42240;53.626;55.886;2022-12-10T08:14:30;0.50;;;0.50;;
56333;SDS011;42240;53.626;55.886;2022-12-10T08:16:07;0.50;;;0.50;;
56333;SDS011;42240;53.626;55.886;2022-12-10T08:17:43;0.50;;;0.50;;
56333;SDS011;42240;53.626;55.886;2022-12-10T08:19:16;0.50;;;0.50;;
56333;SDS011;42240;53.626;55.886;2022-12-10T08:20:56;0.50;;;0.50;;
56333;SDS011;42240;53.626;55.886;2022-12-10T08:22:29;0.50;;;0.50;;
56333;SDS011;42240;53.626;55.886;2022-12-10T08:24:03;0.50;;;0.50;;
56333;SDS011;42240;53.626;55.886;2022-12-10T08:25:37;0.50;;;0.50;;
56333;SDS011;42240;53.626;55.886;2022-12-10T08:27:12;0.50;;;0.50;;
56333;SDS011;42240;53.626;55.886;2022-12-10T08:28:45;0.50;;;0.50;;
56333;SDS011;42240;53.626;55.886;2022-12-10T08:30:20;0.50;;;0.50;;
56333;SDS011;42240;53.626;55.886;2022-12-10T08:31:55;0.50;;;0.50;;
56333;SDS011;42240;53.626;55.886;2022-12-10T08:33:29;0.50;;;0.50;;
56333;SDS011;42240;53.626;55.886;2022-12-10T08:35:03;0.50;;;0.50;;
56333;SDS011;42240;53.626;55.886;2022-12-10T08:36:36;0.50;;;0.50;;
56333;SDS011;42240;53.626;55.886;2022-12-10T08:38:10;0.50;;;0.50;;
56333;SDS011;42240;53.626;55.886;2022-12-10T08:39:44;0.50;;;0.50;;
56333;SDS011;42240;53.626;55.886;2022-12-10T08:41:20;0.50;;;0.50;;
56333;SDS011;42240;53.626;55.886;2022-12-10T08:42:57;0.50;;;0.50;;
56333;SDS011;42240;53.626;55.886;2022-12-10T08:44:31;0.50;;;0.50;;
56333;SDS011;42240;53.626;55.886;2022-12-10T08:46:05;0.50;;;0.50;;
56333;SDS011;42240;53.626;55.886;2022-12-10T08:47:40;0.50;;;0.50;;
56333;SDS011;42240;53.626;55.886;2022-12-10T08:49:13;0.50;;;0.50;;
56333;SDS011;42240;53.626;55.886;2022-12-10T08:50:49;0.50;;;0.50;;
56333;SDS011;42240;53.626;55.886;2022-12-10T08:52:23;0.50;;;0.50;;
56333;SDS011;42240;53.626;55.886;2022-12-10T08:53:57;0.60;;;0.60;;
56333;SDS011;42240;53.626;55.886;2022-12-10T08:55:30;0.50;;;0.50;;
56333;SDS011;42240;53.626;55.886;2022-12-10T08:57:04;0.50;;;0.50;;
56333;SDS011;42240;53.626;55.886;2022-12-10T08:58:38;0.50;;;0.50;;
56333;SDS011;42240;53.626;55.886;2022-12-10T09:00:13;0.50;;;0.50;;
56333;SDS011;42240;53.626;55.886;2022-12-10T09:01:47;0.50;;;0.50;;
56333;SDS011;42240;53.626;55.886;2022-12-10T09:03:27;0.60;;;0.60;;
56333;SDS011;42240;53.626;55.886;2022-12-10T09:05:01;0.50;;;0.50;;
56333;SDS011;42240;53.626;55.886;2022-12-10T09:06:35;0.50;;;0.50;;
56333;SDS011;42240;53.626;55.886;2022-12-10T09:08:10;0.50;;;0.50;;
56333;SDS011;42240;53.626;55.886;2022-12-10T09:09:47;0.50;;;0.50;;
56333;SDS011;42240;53.626;55.886;2022-12-10T09:11:23;0.50;;;0.50;;
56333;SDS011;42240;53.626;55.886;2022-12-10T09:13:00;0.50;;;0.50;;
56333;SDS011;42240;53.626;55.886;2022-12-10T09:14:35;0.50;;;0.50;;
56333;SDS011;42240;53.626;55.886;2022-12-10T09:16:11;0.50;;;0.50;;
56333;SDS011;42240;53.626;55.886;2022-12-10T09:17:45;0.50;;;0.50;;
56333;SDS011;42240;53.626;55.886;2022-12-10T09:19:20;0.50;;;0.50;;
56333;SDS011;42240;53.626;55.886;2022-12-10T09:20:53;0.50;;;0.50;;
56333;SDS011;42240;53.626;55.886;2022-12-10T09:22:28;0.50;;;0.50;;
56333;SDS011;42240;53.626;55.886;2022-12-10T09:24:02;0.50;;;0.50;;
56333;SDS011;42240;53.626;55.886;2022-12-10T09:25:35;0.50;;;0.50;;
56333;SDS011;42240;53.626;55.886;2022-12-10T09:27:09;0.50;;;0.50;;
56333;SDS011;42240;53.626;55.886;2022-12-10T09:28:43;0.50;;;0.50;;
56333;SDS011;42240;53.626;55.886;2022-12-10T09:30:18;0.50;;;0.50;;
56333;SDS011;42240;53.626;55.886;2022-12-10T09:31:51;0.50;;;0.50;;
56333;SDS011;42240;53.626;55.886;2022-12-10T09:33:26;0.50;;;0.50;;
56333;SDS011;42240;53.626;55.886;2022-12-10T09:35:00;0.50;;;0.50;;
56333;SDS011;42240;53.626;55.886;2022-12-10T09:36:34;0.50;;;0.50;;
56333;SDS011;42240;53.626;55.886;2022-12-10T09:38:08;0.50;;;0.50;;
56333;SDS011;42240;53.626;55.886;2022-12-10T09:39:42;0.50;;;0.50;;
56333;SDS011;42240;53.626;55.886;2022-12-10T09:43:19;0.50;;;0.50;;
56333;SDS011;42240;53.626;55.886;2022-12-10T09:47:08;0.50;;;0.50;;
56333;SDS011;42240;53.626;55.886;2022-12-10T09:50:50;0.50;;;0.50;;
56333;SDS011;42240;53.626;55.886;2022-12-10T09:52:37;0.50;;;0.50;;
56333;SDS011;42240;53.626;55.886;2022-12-10T09:56:03;0.60;;;0.60;;
56333;SDS011;42240;53.626;55.886;2022-12-10T09:57:47;0.50;;;0.50;;
56333;SDS011;42240;53.626;55.886;2022-12-10T10:01:09;0.50;;;0.50;;